Aérodrome :
LOGIN :

S'inscrire | Disclaimer

   EN    FR    IT 

 










Légende :    VFR   VFR Marginal   IFR   IFR Intensif   IFR Très Intensif
Visi : 
Plafond : 
>= 8 km
>= 3000ft
5 à 8 km
1000 à 3000 ft
1500m à 5 km
500 à 1000 ft
800 à 1500m
200 à 500 ft
< 800m
< 200 ft
Symboles :   Orages  Brouillard  Fortes neiges  Fortes précipitations  Vent > 20 kt
SIGMETs :   Divers  Orages  Givrage  Turbulence  Onde Orograph.  Cendres Volcan.







- Altitude de l'aérodrome : 194 ft
- Code IATA : LME
- Voir les cartes d'approche


LFRM - Le Mans

DERNIER METAR :
  • 230900Z AUTO 19007KT 150V240 9999 SCT019 SCT200 18/13 Q1017 NOSIG

METARs EXPIRÉS :
  • 230830Z AUTO 16005KT 130V190 CAVOK 16/13 Q1017 NOSIG
  • 230800Z AUTO 17003KT 120V210 CAVOK 15/13 Q1017 NOSIG
  • 230730Z AUTO 19005KT 150V220 9999 FEW006 15/13 Q1017 NOSIG
  • 230700Z AUTO 18003KT 130V210 CAVOK 14/13 Q1016 TEMPO BKN007
  • 230630Z AUTO VRB03KT 9999 FEW006 13/12 Q1016 TEMPO BKN007

TAF TAF LFRM
Valide du 23 à 06h jusqu'au 24 à 06h UTC


230500Z 2306/2406 20006KT 9999 BKN020
TEMPO 2306/2308 BKN007
BECMG 2309/2311 20010KT
TEMPO 2312/2316 4000 SHRA BKN020TCU
BECMG 2316/2318 BKN014
TEMPO 2316/2321 -RA
BECMG 2402/2404 BKN012
TEMPO 2402/2406 2000 RA OVC005
Pas de NOTAMs connus pour ce terrain.



MET'MAP, la Météo Aéronautique d'un coup d'oeil ! - Copyright ORBIFLY Décembre 2007 - Disclaimer

ORBIFLY MET'MAP TEAM :

Programmation & Développement : Alexandra Zaïnal
Conception & Développement : Baudouin d'Aumeries
Co-Programmation & Développement : Marc-Olivier Méhu
Soutien technique & logistique : Manuel Goepfert

Contact : metmap@orbifly.com




SOURCES & CREDITS :

   NOAA